createdAt,value
2022-09-03T00:11:00.759Z,16.78
2022-09-03T00:25:12.726Z,16.63
2022-09-03T00:39:23.267Z,16.49
2022-09-03T00:53:35.898Z,16.37
2022-09-03T01:07:48.370Z,16.18
2022-09-03T01:22:00.977Z,16.11
2022-09-03T01:36:15.708Z,16.17
2022-09-03T01:50:25.201Z,16.32
2022-09-03T02:04:39.318Z,16.48
2022-09-03T02:18:52.410Z,16.56
2022-09-03T02:33:05.298Z,16.6
2022-09-03T02:47:18.558Z,16.66
2022-09-03T03:01:32.714Z,16.7
2022-09-03T03:15:46.211Z,16.67
2022-09-03T03:29:58.309Z,16.59
2022-09-03T03:44:11.869Z,16.38
2022-09-03T03:58:21.477Z,16.11
2022-09-03T04:12:35.988Z,15.87
2022-09-03T04:26:45.042Z,15.9
2022-09-03T04:40:58.753Z,16.06
2022-09-03T04:55:11.378Z,16.14
2022-09-03T05:09:25.022Z,16.27
2022-09-03T05:23:39.821Z,16.36
2022-09-03T05:37:50.893Z,16.37
2022-09-03T05:52:00.002Z,16.33
2022-09-03T06:06:13.593Z,16.07
2022-09-03T06:20:26.664Z,16.19
2022-09-03T06:34:42.765Z,16.41
2022-09-03T06:48:51.583Z,16.14
2022-09-03T07:03:02.434Z,15.35
2022-09-03T07:17:14.678Z,15.03
2022-09-03T07:31:27.359Z,15.01
2022-09-03T07:45:41.928Z,15.21
2022-09-03T07:59:55.568Z,16.5
2022-09-03T08:14:11.746Z,16.92
2022-09-03T08:15:04.683Z,16.95
2022-09-03T08:16:08.805Z,16.96
2022-09-03T08:17:10.969Z,16.95
2022-09-03T08:18:13.442Z,16.98
2022-09-03T08:19:15.903Z,16.99
2022-09-03T08:20:18.300Z,16.95
2022-09-03T08:21:20.702Z,16.91
2022-09-03T08:22:23.154Z,16.92
2022-09-03T08:23:25.651Z,16.94
2022-09-03T08:24:28.096Z,16.96
2022-09-03T08:25:32.191Z,16.98
2022-09-03T08:26:36.037Z,17.01
2022-09-03T08:27:39.942Z,17.02
2022-09-03T08:28:42.268Z,17.05
2022-09-03T08:29:44.708Z,17.07
2022-09-03T08:31:49.781Z,17.09
2022-09-03T08:33:56.139Z,17.11
2022-09-03T08:34:58.413Z,17.13
2022-09-03T08:36:02.842Z,17.18
2022-09-03T08:37:05.219Z,17.21
2022-09-03T08:38:10.887Z,17.24
2022-09-03T08:39:13.128Z,17.28
2022-09-03T08:40:17.028Z,17.3
2022-09-03T08:42:38.944Z,17.39
2022-09-03T08:43:25.709Z,17.43
2022-09-03T08:44:28.232Z,17.42
2022-09-03T08:45:30.619Z,17.44
2022-09-03T08:47:38.658Z,17.46
2022-09-03T08:48:40.989Z,17.48
2022-09-03T08:49:43.804Z,17.51
2022-09-03T08:50:46.088Z,17.53
2022-09-03T08:53:53.475Z,17.51
2022-09-03T08:54:57.493Z,17.53
2022-09-03T08:55:59.879Z,17.52
2022-09-03T08:57:03.842Z,17.54
2022-09-03T08:58:06.337Z,17.57
2022-09-03T09:07:36.053Z,17.49
2022-09-03T09:08:38.849Z,17.57
2022-09-03T09:09:42.905Z,17.58
2022-09-03T09:10:45.208Z,17.65
2022-09-03T09:11:47.743Z,17.71
2022-09-03T09:12:50.362Z,17.77
2022-09-03T09:13:52.682Z,17.81
2022-09-03T09:14:55.178Z,17.86
2022-09-03T09:15:59.309Z,17.87
2022-09-03T09:17:01.488Z,17.93
2022-09-03T09:18:03.915Z,17.97
2022-09-03T09:19:08.119Z,18.00
2022-09-03T09:20:10.478Z,18.03
2022-09-03T09:21:17.816Z,18.05
2022-09-03T09:22:18.701Z,18.12
2022-09-03T09:23:20.959Z,18.17
2022-09-03T09:24:23.483Z,18.19
2022-09-03T09:25:20.042Z,18.20
2022-09-03T09:25:26.010Z,18.25
2022-09-03T09:26:30.041Z,18.29
2022-09-03T09:27:32.494Z,18.33
2022-09-03T09:28:36.391Z,18.37
2022-09-03T09:29:38.820Z,18.39
2022-09-03T09:30:42.898Z,18.35
2022-09-03T09:31:46.940Z,18.39
2022-09-03T09:32:50.952Z,18.41
2022-09-03T09:33:53.259Z,18.46
2022-09-03T09:34:55.602Z,18.48
2022-09-03T09:35:58.310Z,18.50
2022-09-03T09:37:02.265Z,18.53
2022-09-03T09:38:04.847Z,18.48
2022-09-03T09:39:08.808Z,18.53
2022-09-03T09:40:11.087Z,18.55
2022-09-03T09:41:13.485Z,18.57
2022-09-03T09:42:17.515Z,18.59
2022-09-03T09:43:19.968Z,18.57
2022-09-03T09:44:22.396Z,18.56
2022-09-03T09:45:24.799Z,18.62
2022-09-03T09:46:27.488Z,18.65
2022-09-03T09:47:31.529Z,18.67
2022-09-03T09:48:33.838Z,18.65
2022-09-03T09:49:36.619Z,18.63
2022-09-03T09:50:40.535Z,18.67
2022-09-03T09:51:44.474Z,18.71
2022-09-03T09:52:46.874Z,18.66
2022-09-03T09:54:54.847Z,18.71
2022-09-03T09:55:57.290Z,18.72
2022-09-03T09:56:59.815Z,18.76
2022-09-03T09:58:02.232Z,18.77
2022-09-03T09:59:04.692Z,18.80
2022-09-03T10:00:07.118Z,18.81
2022-09-03T10:01:09.621Z,18.85
2022-09-03T10:02:13.687Z,18.87
2022-09-03T10:03:14.623Z,18.90
2022-09-03T10:04:17.081Z,18.93
2022-09-03T10:05:19.543Z,18.95
2022-09-03T10:06:22.090Z,18.97
2022-09-03T10:07:26.137Z,18.99
2022-09-03T10:09:32.463Z,19.02
2022-09-03T10:10:36.671Z,19.06
2022-09-03T10:11:38.984Z,19.08
2022-09-03T10:12:43.095Z,19.12
2022-09-03T10:13:46.964Z,19.09
2022-09-03T10:15:53.223Z,19.11
2022-09-03T10:16:57.286Z,19.13
2022-09-03T10:18:01.234Z,19.17
2022-09-03T10:19:03.504Z,19.20
2022-09-03T10:20:07.520Z,19.26
2022-09-03T10:21:09.866Z,19.25
2022-09-03T10:22:13.919Z,19.28
2022-09-03T10:23:16.280Z,19.32
2022-09-03T10:24:18.759Z,19.40
2022-09-03T10:25:21.185Z,19.42
2022-09-03T10:26:23.662Z,19.47
2022-09-03T10:27:26.231Z,19.56
2022-09-03T10:28:28.651Z,19.62
2022-09-03T10:29:31.156Z,19.69
2022-09-03T10:30:33.566Z,19.68
2022-09-03T10:31:36.153Z,19.71
2022-09-03T10:32:41.903Z,19.76
2022-09-03T10:33:42.500Z,19.79
2022-09-03T10:34:46.621Z,19.82
2022-09-03T10:35:48.975Z,19.86
2022-09-03T10:36:51.534Z,19.88
2022-09-03T10:37:53.971Z,19.92
2022-09-03T10:38:56.440Z,19.94
2022-09-03T10:40:00.717Z,19.93
2022-09-03T10:41:03.156Z,19.95
2022-09-03T10:43:11.200Z,20.00
2022-09-03T10:44:15.159Z,20.02
2022-09-03T10:45:17.512Z,20.03
2022-09-03T10:46:23.911Z,20.04
2022-09-03T10:47:24.006Z,20.09
2022-09-03T10:48:26.370Z,20.10
2022-09-03T10:50:32.754Z,20.16
2022-09-03T10:51:35.289Z,20.20
2022-09-03T10:52:39.332Z,20.27
2022-09-03T10:53:41.702Z,20.34
2022-09-03T10:54:44.143Z,20.41
2022-09-03T10:55:48.159Z,20.43
2022-09-03T10:56:50.554Z,20.45
2022-09-03T10:57:54.650Z,20.48
2022-09-03T10:58:57.128Z,20.53
2022-09-03T10:59:59.535Z,20.68
2022-09-03T11:02:07.482Z,20.75
2022-09-03T11:03:09.840Z,20.79
2022-09-03T11:04:12.381Z,20.84
2022-09-03T11:05:14.878Z,20.90
2022-09-03T11:06:17.355Z,20.95
2022-09-03T11:07:19.854Z,21.01
2022-09-03T11:08:22.409Z,21.03
2022-09-03T11:09:26.430Z,21.05
2022-09-03T11:10:29.706Z,21.13
2022-09-03T11:11:31.199Z,21.15
2022-09-03T11:12:33.621Z,21.17
2022-09-03T11:13:37.717Z,21.23
2022-09-03T11:14:40.030Z,21.29
2022-09-03T11:24:13.000Z,21.22
2022-09-03T11:25:17.156Z,21.28
2022-09-03T11:26:19.620Z,21.30
2022-09-03T11:27:22.080Z,21.39
2022-09-03T11:28:24.653Z,21.45
2022-09-03T11:29:27.099Z,21.51
2022-09-03T11:30:29.591Z,21.60
2022-09-03T11:31:33.685Z,21.62
2022-09-03T11:32:37.674Z,21.71
2022-09-03T11:33:40.055Z,21.81
2022-09-03T11:34:42.526Z,21.92
2022-09-03T11:35:46.637Z,21.95
2022-09-03T11:36:49.049Z,22.05
2022-09-03T11:37:51.593Z,22.10
2022-09-03T11:38:54.044Z,22.14
2022-09-03T11:39:56.752Z,22.16
2022-09-03T11:41:00.609Z,22.17
2022-09-03T11:42:04.588Z,22.18
2022-09-03T11:43:08.531Z,22.19
2022-09-03T11:44:12.465Z,22.23
2022-09-03T11:45:14.933Z,22.24
2022-09-03T11:46:19.212Z,22.25
2022-09-03T11:47:21.477Z,22.30
2022-09-03T11:48:24.069Z,22.36
2022-09-03T11:49:26.352Z,22.37
2022-09-03T11:50:28.984Z,22.41
2022-09-03T11:51:31.376Z,22.49
2022-09-03T11:52:35.024Z,22.56
2022-09-03T11:53:37.442Z,22.63
2022-09-03T11:54:39.934Z,22.57
2022-09-03T11:55:43.540Z,22.58
2022-09-03T11:56:46.793Z,22.61
2022-09-03T11:57:51.725Z,22.67
2022-09-03T11:58:56.875Z,22.68
2022-09-03T12:00:00.946Z,22.62
2022-09-03T12:01:04.814Z,22.65
2022-09-03T12:02:07.241Z,22.69
2022-09-03T12:03:09.773Z,22.75
2022-09-03T12:04:12.252Z,22.80
2022-09-03T12:05:14.748Z,22.84
2022-09-03T12:06:17.416Z,22.86
2022-09-03T12:07:20.105Z,22.84
2022-09-03T12:08:24.162Z,22.92
2022-09-03T12:09:28.035Z,23.01
2022-09-03T12:10:30.351Z,23.05
2022-09-03T12:11:32.863Z,23.06
2022-09-03T12:12:36.895Z,23.00
2022-09-03T12:13:39.181Z,23.01
2022-09-03T12:14:41.648Z,22.98
2022-09-03T12:15:44.171Z,22.96
2022-09-03T12:17:49.096Z,22.92
2022-09-03T12:18:51.489Z,22.93
2022-09-03T12:19:54.067Z,22.94
2022-09-03T12:20:56.472Z,22.99
2022-09-03T12:21:59.072Z,23.04
2022-09-03T12:23:01.577Z,23.05
2022-09-03T12:24:04.352Z,23.10
2022-09-03T12:25:06.631Z,23.13
2022-09-03T12:26:11.745Z,23.20
2022-09-03T12:27:13.999Z,23.27
2022-09-03T12:28:16.404Z,23.30
2022-09-03T12:29:18.849Z,23.33
2022-09-03T12:30:21.415Z,23.35
2022-09-03T12:31:23.735Z,23.28
2022-09-03T12:32:26.269Z,23.34
2022-09-03T12:33:30.301Z,23.37
2022-09-03T12:36:39.051Z,23.51
2022-09-03T12:39:10.289Z,23.60
2022-09-03T12:41:52.990Z,23.64
2022-09-03T12:43:59.482Z,23.66
2022-09-03T12:46:13.246Z,23.69
2022-09-03T12:48:10.937Z,23.80
2022-09-03T12:49:30.794Z,23.94
2022-09-03T12:50:19.718Z,23.87
2022-09-03T12:52:22.151Z,23.81
2022-09-03T12:53:24.741Z,23.80
2022-09-03T12:54:28.738Z,23.76
2022-09-03T12:55:31.103Z,23.75
2022-09-03T12:58:39.987Z,23.74
2022-09-03T12:59:44.062Z,23.78
2022-09-03T13:00:46.450Z,23.89
2022-09-03T13:01:49.055Z,23.9
2022-09-03T13:13:10.347Z,24.48
2022-09-03T13:23:53.507Z,24.42
2022-09-03T13:24:55.975Z,24.39
2022-09-03T13:26:00.715Z,24.31
2022-09-03T13:27:00.979Z,24.29
2022-09-03T13:27:22.712Z,23.61
2022-09-03T13:41:39.424Z,24.49
2022-09-03T13:55:51.363Z,25.1
2022-09-03T14:00:42.597Z,25.04
2022-09-03T14:01:44.989Z,25.02
2022-09-03T14:02:47.506Z,25.00
2022-09-03T14:03:49.829Z,24.97
2022-09-03T14:04:52.350Z,24.96
2022-09-03T14:05:56.469Z,25.04
2022-09-03T14:06:58.855Z,25.1
2022-09-03T14:10:05.813Z,25.23
2022-09-03T14:24:20.192Z,25.76
2022-09-03T14:30:07.494Z,25.68
2022-09-03T14:31:09.919Z,25.55
2022-09-03T14:32:12.373Z,25.48
2022-09-03T14:33:14.765Z,25.31
2022-09-03T14:34:17.245Z,25.22
2022-09-03T14:35:21.355Z,25.16
2022-09-03T14:36:23.719Z,25.08
2022-09-03T14:37:26.246Z,25.03
2022-09-03T14:38:28.698Z,24.97
2022-09-03T14:38:32.745Z,24.92
2022-09-03T14:39:32.547Z,24.88
2022-09-03T14:40:33.686Z,24.83
2022-09-03T14:41:36.158Z,24.80
2022-09-03T14:42:38.574Z,24.69
2022-09-03T14:43:42.767Z,24.63
2022-09-03T14:44:46.612Z,24.62
2022-09-03T14:45:49.037Z,24.58
2022-09-03T14:46:51.404Z,24.57
2022-09-03T14:47:53.958Z,24.55
2022-09-03T14:48:56.429Z,24.47
2022-09-03T14:50:00.473Z,24.41
2022-09-03T14:52:05.416Z,24.40
2022-09-03T14:52:43.371Z,24.07
2022-09-03T15:05:42.327Z,24.02
2022-09-03T15:06:44.941Z,24.00
2022-09-03T15:06:56.183Z,23.74
2022-09-03T15:19:21.200Z,23.70
2022-09-03T15:20:23.625Z,23.65
2022-09-03T15:21:09.476Z,23.56
2022-09-03T15:23:31.110Z,23.52
2022-09-03T15:24:35.258Z,23.50
2022-09-03T15:25:37.554Z,23.49
2022-09-03T15:26:40.002Z,23.47
2022-09-03T15:27:42.573Z,23.44
2022-09-03T15:28:46.581Z,23.41
2022-09-03T15:29:49.024Z,23.37
2022-09-03T15:30:53.733Z,23.39
2022-09-03T15:31:56.315Z,23.37
2022-09-03T15:34:01.178Z,23.35
2022-09-03T15:35:03.727Z,23.29
2022-09-03T15:35:23.061Z,23.26
2022-09-03T15:36:08.978Z,23.26
2022-09-03T15:37:12.643Z,23.23
2022-09-03T15:38:15.103Z,23.20
2022-09-03T15:39:17.604Z,23.16
2022-09-03T15:41:24.205Z,23.12
2022-09-03T15:42:26.579Z,23.11
2022-09-03T15:43:28.934Z,23.07
2022-09-03T15:44:33.037Z,23.03
2022-09-03T15:45:35.619Z,22.98
2022-09-03T15:46:37.972Z,22.99
2022-09-03T15:47:51.239Z,22.96
2022-09-03T15:48:44.418Z,22.92
2022-09-03T15:49:34.845Z,22.83
2022-09-03T15:55:01.075Z,22.79
2022-09-03T15:58:10.010Z,22.78
2022-09-03T16:03:48.153Z,22.29
2022-09-03T16:07:40.454Z,20.76
2022-09-03T16:08:47.719Z,20.35
2022-09-03T16:10:02.170Z,20.13
2022-09-03T16:17:55.132Z,19.56
2022-09-03T16:19:19.671Z,18.58
2022-09-03T16:20:23.742Z,18.53
2022-09-03T16:21:27.799Z,18.51
2022-09-03T16:22:31.697Z,18.48
2022-09-03T16:24:37.865Z,18.46
2022-09-03T16:25:41.895Z,18.44
2022-09-03T16:26:44.213Z,18.42
2022-09-03T16:27:46.629Z,18.39
2022-09-03T16:29:53.232Z,18.37
2022-09-03T16:30:55.558Z,18.34
2022-09-03T16:31:58.053Z,18.36
2022-09-03T16:41:29.778Z,18.01
2022-09-03T16:43:40.896Z,18.02
2022-09-03T16:44:37.432Z,18.05
2022-09-03T16:45:41.532Z,18.11
2022-09-03T16:46:17.257Z,17.91
2022-09-03T17:00:30.031Z,17.76
2022-09-03T17:14:44.878Z,18.03
2022-09-03T17:28:58.865Z,18.17
2022-09-03T17:43:11.529Z,17.73
2022-09-03T17:57:23.213Z,17.2
2022-09-03T18:11:34.873Z,16.65
2022-09-03T18:25:46.720Z,16.25
2022-09-03T18:39:59.519Z,15.95
2022-09-03T18:54:14.699Z,15.71
2022-09-03T19:08:25.043Z,15.6
2022-09-03T19:22:35.866Z,15.48
2022-09-03T19:36:48.729Z,15.29
2022-09-03T19:51:01.268Z,14.97
2022-09-03T20:05:14.717Z,14.78
2022-09-03T20:19:27.253Z,14.72
2022-09-03T20:33:42.021Z,14.65
2022-09-03T21:02:06.278Z,14.53
2022-09-03T21:16:20.269Z,14.83
2022-09-03T21:30:34.769Z,15.07
2022-09-03T21:44:45.674Z,14.87
2022-09-03T21:58:58.814Z,14.71
2022-09-03T22:13:11.882Z,14.66
2022-09-03T22:27:24.677Z,14.57
2022-09-03T22:41:36.972Z,14.39
2022-09-03T22:55:49.629Z,14.27
2022-09-03T23:10:02.772Z,14.18
2022-09-03T23:24:16.711Z,14.13
2022-09-03T23:38:26.882Z,13.98
2022-09-03T23:52:39.222Z,13.93
